createdAt,value
2023-04-26T00:03:05.134Z,7.24
2023-04-26T00:08:06.475Z,7.05
2023-04-26T00:13:08.301Z,7.49
2023-04-26T00:18:09.603Z,7.14
2023-04-26T00:23:11.044Z,6.75
2023-04-26T00:28:12.319Z,6.60
2023-04-26T00:33:13.557Z,6.53
2023-04-26T00:38:14.801Z,6.74
2023-04-26T00:43:16.147Z,6.86
2023-04-26T00:48:17.523Z,7.18
2023-04-26T00:53:18.896Z,6.79
2023-04-26T00:58:20.158Z,7.01
2023-04-26T01:03:21.843Z,7.52
2023-04-26T01:08:23.225Z,7.61
2023-04-26T01:13:24.473Z,7.86
2023-04-26T01:18:25.738Z,7.75
2023-04-26T01:23:27.012Z,7.14
2023-04-26T01:28:28.303Z,6.17
2023-04-26T01:33:29.535Z,6.56
2023-04-26T01:38:30.876Z,6.88
2023-04-26T01:43:32.291Z,7.10
2023-04-26T01:48:33.545Z,6.23
2023-04-26T01:53:34.756Z,5.71
2023-04-26T01:58:36.012Z,5.39
2023-04-26T02:03:37.336Z,5.33
2023-04-26T02:08:38.649Z,6.08
2023-04-26T02:13:39.891Z,6.22
2023-04-26T02:18:41.693Z,6.39
2023-04-26T02:23:42.962Z,6.36
2023-04-26T02:28:44.244Z,6.54
2023-04-26T02:33:45.529Z,6.60
2023-04-26T02:38:47.300Z,6.48
2023-04-26T02:43:48.513Z,6.58
2023-04-26T02:48:50.151Z,6.34
2023-04-26T02:53:51.600Z,6.60
2023-04-26T02:58:53.082Z,6.28
2023-04-26T03:03:54.657Z,6.14
2023-04-26T03:08:56.683Z,6.20
2023-04-26T03:13:57.986Z,6.16
2023-04-26T03:18:59.285Z,6.06
2023-04-26T03:24:00.543Z,6.18
2023-04-26T03:29:01.977Z,6.16
2023-04-26T03:34:03.377Z,6.29
2023-04-26T03:39:06.054Z,5.69
2023-04-26T03:44:07.510Z,5.51
2023-04-26T03:49:08.783Z,5.33
2023-04-26T03:54:09.999Z,5.15
2023-04-26T03:59:11.266Z,5.19
2023-04-26T04:04:12.804Z,5.15
2023-04-26T04:09:14.292Z,4.59
2023-04-26T04:14:15.590Z,4.22
2023-04-26T04:19:16.856Z,4.61
2023-04-26T04:24:18.059Z,4.99
2023-04-26T04:29:19.516Z,5.22
2023-04-26T04:34:20.833Z,5.49
2023-04-26T04:39:22.070Z,5.81
2023-04-26T04:44:24.282Z,6.07
2023-04-26T04:49:25.578Z,6.03
2023-04-26T04:54:26.921Z,5.97
2023-04-26T04:59:28.218Z,6.15
2023-04-26T05:04:29.735Z,6.49
2023-04-26T05:09:31.243Z,6.53
2023-04-26T05:14:32.484Z,6.24
2023-04-26T05:19:33.704Z,6.35
2023-04-26T05:24:34.934Z,6.55
2023-04-26T05:29:36.276Z,6.91
2023-04-26T05:34:38.582Z,7.18
2023-04-26T05:39:39.782Z,7.29
2023-04-26T05:44:41.345Z,7.30
2023-04-26T05:49:42.622Z,6.78
2023-04-26T05:54:44.011Z,6.28
2023-04-26T05:59:45.308Z,5.95
2023-04-26T06:04:46.955Z,5.98
2023-04-26T06:09:48.358Z,5.81
2023-04-26T06:14:49.632Z,5.93
2023-04-26T06:19:50.928Z,6.47
2023-04-26T06:24:52.284Z,6.79
2023-04-26T06:29:53.530Z,6.83
2023-04-26T06:34:54.984Z,7.20
2023-04-26T06:39:56.221Z,7.55
2023-04-26T06:44:57.441Z,7.91
2023-04-26T06:49:58.685Z,8.06
2023-04-26T06:54:59.947Z,7.42
2023-04-26T07:00:01.181Z,7.64
2023-04-26T07:05:04.638Z,7.54
2023-04-26T07:10:06.043Z,7.44
2023-04-26T07:15:07.295Z,7.71
2023-04-26T07:20:08.616Z,8.29
2023-04-26T07:25:09.884Z,8.57
2023-04-26T07:30:11.243Z,8.38
2023-04-26T07:35:16.133Z,8.67
2023-04-26T07:40:18.798Z,9.12
2023-04-26T07:45:20.143Z,9.14
2023-04-26T07:50:21.488Z,9.33
2023-04-26T07:55:23.688Z,9.62
2023-04-26T08:00:25.177Z,8.93
2023-04-26T08:05:27.859Z,8.43
2023-04-26T08:10:29.921Z,8.33
2023-04-26T08:15:32.536Z,8.68
2023-04-26T08:20:34.080Z,9.98
2023-04-26T08:25:35.422Z,10.22
2023-04-26T08:30:36.788Z,9.56
2023-04-26T08:35:38.132Z,9.59
2023-04-26T08:40:40.429Z,10.25
2023-04-26T08:45:41.788Z,10.80
2023-04-26T08:50:43.103Z,11.18
2023-04-26T08:55:44.353Z,10.98
2023-04-26T09:00:46.170Z,10.31
2023-04-26T09:05:47.728Z,10.57
2023-04-26T09:10:49.044Z,9.99
2023-04-26T09:15:50.398Z,9.69
2023-04-26T09:20:51.691Z,10.25
2023-04-26T09:25:53.016Z,10.92
2023-04-26T09:30:54.315Z,10.35
2023-04-26T09:35:55.804Z,10.53
2023-04-26T09:40:59.477Z,10.23
2023-04-26T09:46:02.416Z,9.45
2023-04-26T09:51:03.725Z,10.02
2023-04-26T09:56:04.979Z,10.20
2023-04-26T10:01:06.938Z,9.60
2023-04-26T10:06:08.261Z,9.80
2023-04-26T10:11:12.974Z,10.85
2023-04-26T10:16:14.401Z,10.60
2023-04-26T10:21:16.020Z,11.41
2023-04-26T10:26:17.318Z,10.72
2023-04-26T10:31:18.545Z,11.81
2023-04-26T10:36:21.087Z,12.31
2023-04-26T10:41:23.865Z,11.62
2023-04-26T10:46:25.283Z,10.92
2023-04-26T10:51:27.257Z,10.98
2023-04-26T10:56:28.514Z,11.79
2023-04-26T11:01:31.208Z,12.19
2023-04-26T11:06:32.578Z,12.25
2023-04-26T11:11:33.833Z,12.97
2023-04-26T11:16:35.184Z,11.86
2023-04-26T11:21:36.548Z,13.65
2023-04-26T11:26:38.250Z,12.96
2023-04-26T11:31:39.544Z,13.04
2023-04-26T11:36:40.858Z,11.93
2023-04-26T11:41:42.129Z,11.33
2023-04-26T11:46:43.471Z,11.36
2023-04-26T11:51:44.765Z,11.73
2023-04-26T11:56:46.174Z,12.50
2023-04-26T12:01:47.452Z,12.41
2023-04-26T12:06:49.780Z,12.45
2023-04-26T12:11:51.610Z,13.86
2023-04-26T12:16:54.440Z,13.54
2023-04-26T12:21:56.021Z,12.37
2023-04-26T12:26:57.289Z,12.09
2023-04-26T12:31:58.753Z,12.54
2023-04-26T12:37:00.150Z,14.10
2023-04-26T12:42:01.495Z,15.83
2023-04-26T12:47:02.752Z,15.01
2023-04-26T12:52:07.379Z,14.26
2023-04-26T12:57:08.628Z,13.82
2023-04-26T13:02:10.167Z,15.70
2023-04-26T13:07:11.577Z,15.66
2023-04-26T13:12:14.158Z,14.40
2023-04-26T13:17:15.783Z,14.49
2023-04-26T13:22:17.104Z,14.16
2023-04-26T13:27:18.406Z,12.87
2023-04-26T13:32:19.813Z,13.66
2023-04-26T13:37:21.390Z,13.25
2023-04-26T13:42:22.850Z,14.07
2023-04-26T13:47:24.194Z,13.25
2023-04-26T13:52:25.551Z,12.34
2023-04-26T13:57:26.831Z,12.29
2023-04-26T14:02:28.329Z,13.13
2023-04-26T14:07:29.689Z,13.94
2023-04-26T14:12:30.991Z,13.42
2023-04-26T14:17:32.489Z,14.26
2023-04-26T14:22:33.830Z,14.91
2023-04-26T14:27:35.054Z,15.56
2023-04-26T14:32:36.440Z,15.21
2023-04-26T14:37:37.762Z,15.44
2023-04-26T14:42:44.348Z,16.07
2023-04-26T14:47:45.765Z,16.99
2023-04-26T14:52:47.238Z,16.19
2023-04-26T14:57:48.491Z,15.22
2023-04-26T15:02:49.827Z,16.35
2023-04-26T15:07:51.944Z,15.02
2023-04-26T15:12:53.395Z,13.83
2023-04-26T15:17:54.773Z,14.38
2023-04-26T15:22:56.144Z,15.55
2023-04-26T15:27:57.776Z,15.25
2023-04-26T15:32:59.107Z,15.59
2023-04-26T15:38:00.388Z,16.81
2023-04-26T15:43:01.620Z,16.27
2023-04-26T15:48:02.921Z,15.54
2023-04-26T15:53:04.553Z,15.33
2023-04-26T15:58:06.126Z,15.53
2023-04-26T16:03:07.672Z,15.87
2023-04-26T16:08:09.494Z,16.62
2023-04-26T16:13:10.920Z,16.09
2023-04-26T16:18:12.175Z,15.40
2023-04-26T16:23:13.555Z,14.33
2023-04-26T16:28:14.769Z,14.39
2023-04-26T16:33:16.172Z,13.89
2023-04-26T16:38:17.486Z,13.93
2023-04-26T16:43:19.128Z,15.27
2023-04-26T16:48:20.909Z,16.28
2023-04-26T16:53:22.752Z,16.41
2023-04-26T16:58:24.236Z,14.73
2023-04-26T17:03:25.837Z,14.12
2023-04-26T17:08:27.566Z,13.76
2023-04-26T17:13:30.632Z,13.84
2023-04-26T17:18:31.864Z,14.42
2023-04-26T17:23:33.707Z,14.13
2023-04-26T17:28:35.945Z,13.36
2023-04-26T17:33:37.226Z,13.27
2023-04-26T17:38:38.517Z,13.38
2023-04-26T17:43:39.807Z,13.78
2023-04-26T17:48:41.203Z,13.61
2023-04-26T17:53:42.502Z,14.39
2023-04-26T17:58:43.750Z,13.88
2023-04-26T18:03:45.223Z,13.54
2023-04-26T18:08:47.118Z,13.62
2023-04-26T18:13:48.895Z,13.56
2023-04-26T18:18:50.344Z,13.62
2023-04-26T18:23:51.639Z,13.54
2023-04-26T18:28:52.880Z,13.18
2023-04-26T18:33:54.116Z,12.82
2023-04-26T18:38:55.586Z,12.81
2023-04-26T18:43:57.039Z,13.05
2023-04-26T18:48:58.355Z,13.01
2023-04-26T18:53:59.653Z,12.90
2023-04-26T18:59:00.917Z,12.66
2023-04-26T19:04:02.412Z,12.54
2023-04-26T19:09:05.935Z,12.29
2023-04-26T19:14:07.321Z,12.48
2023-04-26T19:19:08.624Z,12.47
2023-04-26T19:24:09.847Z,12.42
2023-04-26T19:29:11.185Z,12.16
2023-04-26T19:34:12.884Z,12.10
2023-04-26T19:39:16.043Z,11.79
2023-04-26T19:44:17.301Z,11.56
2023-04-26T19:49:18.586Z,11.72
2023-04-26T19:54:19.911Z,11.27
2023-04-26T19:59:21.343Z,10.87
2023-04-26T20:04:22.734Z,10.87
2023-04-26T20:09:24.038Z,10.99
2023-04-26T20:14:25.951Z,10.96
2023-04-26T20:19:27.186Z,10.55
2023-04-26T20:24:28.391Z,10.32
2023-04-26T20:29:29.607Z,10.36
2023-04-26T20:34:30.844Z,10.59
2023-04-26T20:39:33.736Z,10.75
2023-04-26T20:44:35.525Z,10.49
2023-04-26T20:49:36.767Z,10.11
2023-04-26T20:54:37.987Z,10.00
2023-04-26T20:59:40.626Z,10.20
2023-04-26T21:04:42.805Z,10.30
2023-04-26T21:09:44.314Z,10.22
2023-04-26T21:14:47.755Z,10.26
2023-04-26T21:19:49.000Z,9.82
2023-04-26T21:24:50.401Z,9.84
2023-04-26T21:29:51.649Z,9.68
2023-04-26T21:34:52.945Z,9.83
2023-04-26T21:39:54.308Z,9.70
2023-04-26T21:44:55.710Z,9.53
2023-04-26T21:49:56.925Z,9.65
2023-04-26T21:54:58.211Z,9.48
2023-04-26T21:59:59.436Z,9.63
2023-04-26T22:05:00.658Z,9.76
2023-04-26T22:10:02.147Z,9.67
2023-04-26T22:15:03.337Z,9.60
2023-04-26T22:20:05.229Z,9.33
2023-04-26T22:25:06.443Z,9.20
2023-04-26T22:30:23.162Z,9.20
2023-04-26T22:35:25.800Z,9.42
2023-04-26T22:40:27.052Z,9.38
2023-04-26T22:45:28.299Z,9.16
2023-04-26T22:50:29.509Z,9.19
2023-04-26T22:55:30.965Z,9.24
2023-04-26T23:00:32.406Z,9.28
2023-04-26T23:05:33.711Z,9.12
2023-04-26T23:10:34.983Z,8.94
2023-04-26T23:15:36.263Z,8.83
2023-04-26T23:20:37.486Z,9.03
2023-04-26T23:25:42.319Z,8.35
2023-04-26T23:30:43.619Z,8.48
2023-04-26T23:35:44.816Z,8.39
2023-04-26T23:40:46.238Z,8.33
2023-04-26T23:45:48.086Z,8.49
2023-04-26T23:50:49.606Z,8.43
2023-04-26T23:55:51.447Z,8.44
